sensor_id;sensor_type;location;lat;lon;timestamp;pressure;altitude;pressure_sealevel;temperature;humidity
84683;BME280;74905;44.124;18.116;2024-03-02T00:00:22;96458.28;;;7.21;75.25
84683;BME280;74905;44.124;18.116;2024-03-02T00:02:49;96463.00;;;7.18;75.19
84683;BME280;74905;44.124;18.116;2024-03-02T00:05:17;96456.03;;;7.17;74.81
84683;BME280;74905;44.124;18.116;2024-03-02T00:07:52;96464.84;;;7.14;75.19
84683;BME280;74905;44.124;18.116;2024-03-02T00:10:20;96471.81;;;7.15;75.18
84683;BME280;74905;44.124;18.116;2024-03-02T00:12:48;96467.09;;;7.17;75.14
84683;BME280;74905;44.124;18.116;2024-03-02T00:15:51;96467.31;;;7.21;75.51
84683;BME280;74905;44.124;18.116;2024-03-02T00:18:25;96461.47;;;7.29;74.80
84683;BME280;74905;44.124;18.116;2024-03-02T00:20:55;96461.25;;;7.25;74.47
84683;BME280;74905;44.124;18.116;2024-03-02T00:23:26;96465.16;;;7.20;74.46
84683;BME280;74905;44.124;18.116;2024-03-02T00:25:53;96473.34;;;7.18;74.51
84683;BME280;74905;44.124;18.116;2024-03-02T00:28:22;96473.97;;;7.16;74.41
84683;BME280;74905;44.124;18.116;2024-03-02T00:31:07;96468.44;;;7.16;74.57
84683;BME280;74905;44.124;18.116;2024-03-02T00:36:00;96475.19;;;7.13;73.70
84683;BME280;74905;44.124;18.116;2024-03-02T00:38:27;96472.94;;;7.09;74.81
84683;BME280;74905;44.124;18.116;2024-03-02T00:40:53;96474.91;;;7.07;75.45
84683;BME280;74905;44.124;18.116;2024-03-02T00:46:02;96480.53;;;6.95;75.45
84683;BME280;74905;44.124;18.116;2024-03-02T00:48:28;96472.84;;;6.94;76.18
84683;BME280;74905;44.124;18.116;2024-03-02T00:50:56;96478.47;;;6.96;75.84
84683;BME280;74905;44.124;18.116;2024-03-02T00:53:23;96484.00;;;6.96;76.39
84683;BME280;74905;44.124;18.116;2024-03-02T00:55:52;96474.38;;;6.97;75.39
84683;BME280;74905;44.124;18.116;2024-03-02T00:58:18;96474.47;;;6.99;75.61
84683;BME280;74905;44.124;18.116;2024-03-02T01:00:44;96475.91;;;7.00;75.78
84683;BME280;74905;44.124;18.116;2024-03-02T01:03:09;96478.59;;;6.98;75.46
84683;BME280;74905;44.124;18.116;2024-03-02T01:05:36;96479.19;;;6.96;75.33
84683;BME280;74905;44.124;18.116;2024-03-02T01:08:02;96478.88;;;6.90;75.46
84683;BME280;74905;44.124;18.116;2024-03-02T01:10:27;96477.63;;;6.80;75.72
84683;BME280;74905;44.124;18.116;2024-03-02T01:12:53;96478.03;;;6.74;76.59
84683;BME280;74905;44.124;18.116;2024-03-02T01:15:18;96480.31;;;6.78;76.71
84683;BME280;74905;44.124;18.116;2024-03-02T01:17:44;96482.25;;;6.75;76.63
84683;BME280;74905;44.124;18.116;2024-03-02T01:20:10;96483.34;;;6.70;76.70
84683;BME280;74905;44.124;18.116;2024-03-02T01:22:36;96480.69;;;6.72;76.92
84683;BME280;74905;44.124;18.116;2024-03-02T01:25:03;96477.81;;;6.70;76.63
84683;BME280;74905;44.124;18.116;2024-03-02T01:27:28;96483.34;;;6.70;77.64
84683;BME280;74905;44.124;18.116;2024-03-02T01:29:54;96475.16;;;6.72;76.62
84683;BME280;74905;44.124;18.116;2024-03-02T01:32:20;96476.59;;;6.73;76.42
84683;BME280;74905;44.124;18.116;2024-03-02T01:34:46;96472.72;;;6.78;75.89
84683;BME280;74905;44.124;18.116;2024-03-02T01:37:11;96476.81;;;6.77;76.35
84683;BME280;74905;44.124;18.116;2024-03-02T01:39:37;96472.00;;;6.78;76.17
84683;BME280;74905;44.124;18.116;2024-03-02T01:42:02;96478.03;;;6.74;76.06
84683;BME280;74905;44.124;18.116;2024-03-02T01:44:28;96479.97;;;6.71;76.33
84683;BME280;74905;44.124;18.116;2024-03-02T01:46:54;96475.06;;;6.70;76.08
84683;BME280;74905;44.124;18.116;2024-03-02T01:49:19;96473.91;;;6.61;75.67
84683;BME280;74905;44.124;18.116;2024-03-02T01:51:45;96466.53;;;6.52;75.85
84683;BME280;74905;44.124;18.116;2024-03-02T01:54:11;96467.03;;;6.49;76.99
84683;BME280;74905;44.124;18.116;2024-03-02T01:56:37;96471.75;;;6.46;76.68
84683;BME280;74905;44.124;18.116;2024-03-02T01:59:02;96464.28;;;6.49;77.23
84683;BME280;74905;44.124;18.116;2024-03-02T02:01:28;96456.59;;;6.47;77.06
84683;BME280;74905;44.124;18.116;2024-03-02T02:03:54;96465.06;;;6.38;77.37
84683;BME280;74905;44.124;18.116;2024-03-02T02:06:20;96458.09;;;6.37;77.55
84683;BME280;74905;44.124;18.116;2024-03-02T02:08:46;96456.66;;;6.35;76.98
84683;BME280;74905;44.124;18.116;2024-03-02T02:11:15;96460.56;;;6.30;77.86
84683;BME280;74905;44.124;18.116;2024-03-02T02:13:41;96465.97;;;6.28;77.88
84683;BME280;74905;44.124;18.116;2024-03-02T02:16:07;96454.50;;;6.34;76.77
84683;BME280;74905;44.124;18.116;2024-03-02T02:18:33;96456.66;;;6.35;76.98
84683;BME280;74905;44.124;18.116;2024-03-02T02:20:59;96460.75;;;6.34;76.76
84683;BME280;74905;44.124;18.116;2024-03-02T02:23:25;96464.13;;;6.33;76.30
84683;BME280;74905;44.124;18.116;2024-03-02T02:25:50;96452.16;;;6.28;76.80
84683;BME280;74905;44.124;18.116;2024-03-02T02:28:16;96466.25;;;6.21;77.15
84683;BME280;74905;44.124;18.116;2024-03-02T02:30:42;96463.94;;;6.04;77.02
84683;BME280;74905;44.124;18.116;2024-03-02T02:33:08;96462.16;;;5.96;77.86
84683;BME280;74905;44.124;18.116;2024-03-02T02:35:34;96468.69;;;5.89;77.67
84683;BME280;74905;44.124;18.116;2024-03-02T02:38:00;96457.88;;;5.82;78.62
84683;BME280;74905;44.124;18.116;2024-03-02T02:40:26;96462.78;;;5.83;77.99
84683;BME280;74905;44.124;18.116;2024-03-02T02:42:52;96451.84;;;5.85;78.43
84683;BME280;74905;44.124;18.116;2024-03-02T02:45:18;96465.19;;;5.89;78.61
84683;BME280;74905;44.124;18.116;2024-03-02T02:47:44;96472.16;;;5.78;78.03
84683;BME280;74905;44.124;18.116;2024-03-02T02:50:11;96474.00;;;5.74;78.20
84683;BME280;74905;44.124;18.116;2024-03-02T02:52:39;96470.88;;;5.68;78.32
84683;BME280;74905;44.124;18.116;2024-03-02T02:55:07;96477.38;;;5.60;78.94
84683;BME280;74905;44.124;18.116;2024-03-02T02:57:34;96482.22;;;5.48;79.66
84683;BME280;74905;44.124;18.116;2024-03-02T03:00:14;96480.56;;;5.43;80.31
84683;BME280;74905;44.124;18.116;2024-03-02T03:02:44;96489.44;;;5.42;80.36
84683;BME280;74905;44.124;18.116;2024-03-02T03:05:12;96480.78;;;5.47;79.16
84683;BME280;74905;44.124;18.116;2024-03-02T03:07:40;96488.09;;;5.54;78.49
84683;BME280;74905;44.124;18.116;2024-03-02T03:10:06;96477.19;;;5.56;78.68
84683;BME280;74905;44.124;18.116;2024-03-02T03:12:34;96481.72;;;5.52;78.83
84683;BME280;74905;44.124;18.116;2024-03-02T03:14:59;96485.94;;;5.41;79.30
84683;BME280;74905;44.124;18.116;2024-03-02T03:17:26;96483.19;;;5.41;79.21
84683;BME280;74905;44.124;18.116;2024-03-02T03:19:52;96482.00;;;5.44;79.06
84683;BME280;74905;44.124;18.116;2024-03-02T03:22:18;96477.47;;;5.37;78.35
84683;BME280;74905;44.124;18.116;2024-03-02T03:24:44;96484.56;;;5.17;79.24
84683;BME280;74905;44.124;18.116;2024-03-02T03:27:10;96489.72;;;5.11;79.56
84683;BME280;74905;44.124;18.116;2024-03-02T03:29:37;96487.06;;;5.01;79.96
84683;BME280;74905;44.124;18.116;2024-03-02T03:32:03;96490.34;;;4.98;80.20
84683;BME280;74905;44.124;18.116;2024-03-02T03:34:32;96490.56;;;5.02;79.73
84683;BME280;74905;44.124;18.116;2024-03-02T03:36:58;96483.25;;;5.06;79.37
84683;BME280;74905;44.124;18.116;2024-03-02T03:39:23;96492.59;;;5.01;79.47
84683;BME280;74905;44.124;18.116;2024-03-02T03:41:49;96497.16;;;4.97;80.13
84683;BME280;74905;44.124;18.116;2024-03-02T03:44:15;96501.97;;;4.96;80.11
84683;BME280;74905;44.124;18.116;2024-03-02T03:46:40;96505.78;;;4.91;80.50
84683;BME280;74905;44.124;18.116;2024-03-02T03:49:06;96504.09;;;4.86;80.03
84683;BME280;74905;44.124;18.116;2024-03-02T03:51:31;96516.69;;;4.77;79.66
84683;BME280;74905;44.124;18.116;2024-03-02T03:53:57;96516.06;;;4.67;80.70
84683;BME280;74905;44.124;18.116;2024-03-02T03:56:22;96518.97;;;4.69;81.13
84683;BME280;74905;44.124;18.116;2024-03-02T03:58:48;96514.28;;;4.72;80.89
84683;BME280;74905;44.124;18.116;2024-03-02T04:01:13;96516.34;;;4.71;80.82
84683;BME280;74905;44.124;18.116;2024-03-02T04:03:39;96521.47;;;4.65;81.15
84683;BME280;74905;44.124;18.116;2024-03-02T04:06:04;96515.81;;;4.63;81.43
84683;BME280;74905;44.124;18.116;2024-03-02T04:10:59;96538.47;;;4.62;81.20
84683;BME280;74905;44.124;18.116;2024-03-02T04:13:25;96529.72;;;4.65;80.62
84683;BME280;74905;44.124;18.116;2024-03-02T04:15:50;96534.16;;;4.59;80.71
84683;BME280;74905;44.124;18.116;2024-03-02T04:18:16;96541.22;;;4.50;81.19
84683;BME280;74905;44.124;18.116;2024-03-02T04:20:41;96549.09;;;4.44;80.70
84683;BME280;74905;44.124;18.116;2024-03-02T04:23:07;96551.34;;;4.36;81.63
84683;BME280;74905;44.124;18.116;2024-03-02T04:25:33;96551.47;;;4.38;81.13
84683;BME280;74905;44.124;18.116;2024-03-02T04:27:58;96548.84;;;4.40;81.47
84683;BME280;74905;44.124;18.116;2024-03-02T04:30:24;96552.66;;;4.35;81.45
84683;BME280;74905;44.124;18.116;2024-03-02T04:32:50;96559.69;;;4.26;82.28
84683;BME280;74905;44.124;18.116;2024-03-02T04:35:16;96555.88;;;4.31;81.21
84683;BME280;74905;44.124;18.116;2024-03-02T04:37:41;96556.13;;;4.35;81.24
84683;BME280;74905;44.124;18.116;2024-03-02T04:40:08;96555.63;;;4.27;80.97
84683;BME280;74905;44.124;18.116;2024-03-02T04:42:34;96557.16;;;4.19;80.76
84683;BME280;74905;44.124;18.116;2024-03-02T04:45:00;96555.00;;;4.17;80.66
84683;BME280;74905;44.124;18.116;2024-03-02T04:47:26;96571.19;;;4.23;80.65
84683;BME280;74905;44.124;18.116;2024-03-02T04:49:51;96572.63;;;4.24;80.02
84683;BME280;74905;44.124;18.116;2024-03-02T04:52:17;96580.63;;;4.20;80.53
84683;BME280;74905;44.124;18.116;2024-03-02T04:54:43;96580.84;;;4.12;80.58
84683;BME280;74905;44.124;18.116;2024-03-02T04:57:27;96578.28;;;4.04;80.67
84683;BME280;74905;44.124;18.116;2024-03-02T04:59:53;96587.00;;;4.01;80.90
84683;BME280;74905;44.124;18.116;2024-03-02T05:02:18;96590.22;;;3.97;80.53
84683;BME280;74905;44.124;18.116;2024-03-02T05:04:44;96580.41;;;3.94;80.86
84683;BME280;74905;44.124;18.116;2024-03-02T05:07:10;96586.28;;;4.00;80.34
84683;BME280;74905;44.124;18.116;2024-03-02T05:09:35;96587.34;;;3.95;80.76
84683;BME280;74905;44.124;18.116;2024-03-02T05:12:01;96593.38;;;3.82;80.64
84683;BME280;74905;44.124;18.116;2024-03-02T05:14:45;96589.94;;;3.72;81.46
84683;BME280;74905;44.124;18.116;2024-03-02T05:17:11;96589.03;;;3.79;81.65
84683;BME280;74905;44.124;18.116;2024-03-02T05:19:36;96589.63;;;3.78;81.45
84683;BME280;74905;44.124;18.116;2024-03-02T05:22:02;96598.59;;;3.78;81.14
84683;BME280;74905;44.124;18.116;2024-03-02T05:24:28;96595.47;;;3.72;81.08
84683;BME280;74905;44.124;18.116;2024-03-02T05:26:54;96602.75;;;3.67;81.17
84683;BME280;74905;44.124;18.116;2024-03-02T05:29:19;96596.19;;;3.72;82.14
84683;BME280;74905;44.124;18.116;2024-03-02T05:31:46;96591.91;;;3.81;81.71
84683;BME280;74905;44.124;18.116;2024-03-02T05:34:12;96599.00;;;3.84;82.00
84683;BME280;74905;44.124;18.116;2024-03-02T05:36:37;96606.06;;;3.87;82.22
84683;BME280;74905;44.124;18.116;2024-03-02T05:39:04;96611.56;;;3.87;81.15
84683;BME280;74905;44.124;18.116;2024-03-02T05:41:31;96615.97;;;3.81;80.96
84683;BME280;74905;44.124;18.116;2024-03-02T05:43:57;96615.09;;;3.78;81.86
84683;BME280;74905;44.124;18.116;2024-03-02T05:46:23;96614.22;;;3.85;81.06
84683;BME280;74905;44.124;18.116;2024-03-02T05:48:48;96618.78;;;3.92;80.85
84683;BME280;74905;44.124;18.116;2024-03-02T05:51:14;96615.69;;;3.98;80.70
84683;BME280;74905;44.124;18.116;2024-03-02T05:53:39;96620.25;;;3.93;80.68
84683;BME280;74905;44.124;18.116;2024-03-02T05:56:05;96625.66;;;3.82;80.99
84683;BME280;74905;44.124;18.116;2024-03-02T05:58:31;96623.09;;;3.74;81.61
84683;BME280;74905;44.124;18.116;2024-03-02T06:01:15;96625.22;;;3.85;81.52
84683;BME280;74905;44.124;18.116;2024-03-02T06:03:43;96630.66;;;3.95;81.54
84683;BME280;74905;44.124;18.116;2024-03-02T06:06:09;96636.47;;;3.89;81.33
84683;BME280;74905;44.124;18.116;2024-03-02T06:08:34;96633.00;;;3.89;81.07
84683;BME280;74905;44.124;18.116;2024-03-02T06:11:00;96639.94;;;3.90;80.87
84683;BME280;74905;44.124;18.116;2024-03-02T06:13:26;96630.19;;;3.98;80.88
84683;BME280;74905;44.124;18.116;2024-03-02T06:15:52;96628.09;;;4.08;80.30
84683;BME280;74905;44.124;18.116;2024-03-02T06:18:18;96639.25;;;4.10;80.34
84683;BME280;74905;44.124;18.116;2024-03-02T06:20:43;96643.56;;;4.14;80.50
84683;BME280;74905;44.124;18.116;2024-03-02T06:23:09;96637.88;;;4.21;79.76
84683;BME280;74905;44.124;18.116;2024-03-02T06:25:34;96637.78;;;4.31;79.47
84683;BME280;74905;44.124;18.116;2024-03-02T06:28:00;96641.72;;;4.28;79.15
84683;BME280;74905;44.124;18.116;2024-03-02T06:30:26;96644.34;;;4.26;79.51
84683;BME280;74905;44.124;18.116;2024-03-02T06:32:51;96639.09;;;4.30;79.47
84683;BME280;74905;44.124;18.116;2024-03-02T06:35:17;96639.41;;;4.45;80.11
84683;BME280;74905;44.124;18.116;2024-03-02T06:37:42;96638.50;;;4.64;79.04
84683;BME280;74905;44.124;18.116;2024-03-02T06:40:08;96638.78;;;4.68;78.33
84683;BME280;74905;44.124;18.116;2024-03-02T06:42:35;96641.41;;;4.66;78.34
84683;BME280;74905;44.124;18.116;2024-03-02T06:45:01;96644.53;;;4.72;78.43
84683;BME280;74905;44.124;18.116;2024-03-02T06:47:27;96635.44;;;4.70;78.23
84683;BME280;74905;44.124;18.116;2024-03-02T06:49:52;96631.13;;;4.78;79.01
84683;BME280;74905;44.124;18.116;2024-03-02T06:52:18;96633.34;;;5.03;78.24
84683;BME280;74905;44.124;18.116;2024-03-02T06:54:44;96643.44;;;5.22;77.37
84683;BME280;74905;44.124;18.116;2024-03-02T06:57:09;96642.25;;;5.25;76.77
84683;BME280;74905;44.124;18.116;2024-03-02T06:59:35;96645.59;;;5.23;77.21
84683;BME280;74905;44.124;18.116;2024-03-02T07:02:00;96649.56;;;5.32;77.14
84683;BME280;74905;44.124;18.116;2024-03-02T07:04:27;96651.03;;;5.45;76.06
84683;BME280;74905;44.124;18.116;2024-03-02T07:06:52;96644.69;;;5.54;76.64
84683;BME280;74905;44.124;18.116;2024-03-02T07:09:18;96641.53;;;5.59;76.77
84683;BME280;74905;44.124;18.116;2024-03-02T07:11:48;96649.22;;;5.61;76.69
84683;BME280;74905;44.124;18.116;2024-03-02T07:14:13;96642.75;;;5.91;76.11
84683;BME280;74905;44.124;18.116;2024-03-02T07:16:39;96644.00;;;6.25;74.33
84683;BME280;74905;44.124;18.116;2024-03-02T07:19:06;96637.88;;;6.52;73.55
84683;BME280;74905;44.124;18.116;2024-03-02T07:21:31;96648.25;;;6.77;73.96
84683;BME280;74905;44.124;18.116;2024-03-02T07:23:58;96643.59;;;6.93;71.78
84683;BME280;74905;44.124;18.116;2024-03-02T07:26:25;96645.91;;;7.10;70.58
84683;BME280;74905;44.124;18.116;2024-03-02T07:28:51;96640.72;;;7.30;71.45
84683;BME280;74905;44.124;18.116;2024-03-02T07:31:17;96640.56;;;7.54;69.88
84683;BME280;74905;44.124;18.116;2024-03-02T07:33:45;96645.59;;;7.84;69.50
84683;BME280;74905;44.124;18.116;2024-03-02T07:36:12;96648.25;;;8.10;68.54
84683;BME280;74905;44.124;18.116;2024-03-02T07:38:38;96651.41;;;8.45;67.54
84683;BME280;74905;44.124;18.116;2024-03-02T07:41:03;96648.28;;;8.67;67.68
84683;BME280;74905;44.124;18.116;2024-03-02T07:43:30;96649.28;;;9.18;64.76
84683;BME280;74905;44.124;18.116;2024-03-02T07:45:57;96641.88;;;9.70;64.21
84683;BME280;74905;44.124;18.116;2024-03-02T07:48:22;96645.25;;;10.33;61.44
84683;BME280;74905;44.124;18.116;2024-03-02T07:50:48;96647.19;;;11.00;60.20
84683;BME280;74905;44.124;18.116;2024-03-02T07:53:14;96647.16;;;11.35;58.41
84683;BME280;74905;44.124;18.116;2024-03-02T07:55:40;96636.22;;;11.79;56.56
84683;BME280;74905;44.124;18.116;2024-03-02T07:58:06;96641.28;;;12.46;55.40
84683;BME280;74905;44.124;18.116;2024-03-02T08:00:32;96642.81;;;12.71;54.32
84683;BME280;74905;44.124;18.116;2024-03-02T08:02:57;96633.31;;;13.01;53.42
84683;BME280;74905;44.124;18.116;2024-03-02T08:05:23;96640.53;;;13.56;52.50
84683;BME280;74905;44.124;18.116;2024-03-02T08:07:49;96636.69;;;13.69;51.45
84683;BME280;74905;44.124;18.116;2024-03-02T08:10:18;96636.69;;;13.69;52.21
84683;BME280;74905;44.124;18.116;2024-03-02T08:12:44;96638.19;;;13.98;50.95
84683;BME280;74905;44.124;18.116;2024-03-02T08:15:10;96640.59;;;14.64;49.69
84683;BME280;74905;44.124;18.116;2024-03-02T08:17:35;96635.31;;;15.06;48.83
84683;BME280;74905;44.124;18.116;2024-03-02T08:20:01;96637.19;;;15.27;48.11
84683;BME280;74905;44.124;18.116;2024-03-02T08:22:27;96636.84;;;16.13;45.82
84683;BME280;74905;44.124;18.116;2024-03-02T08:24:53;96638.66;;;16.36;45.73
84683;BME280;74905;44.124;18.116;2024-03-02T08:27:19;96636.69;;;16.45;45.02
84683;BME280;74905;44.124;18.116;2024-03-02T08:29:45;96636.56;;;16.36;44.83
84683;BME280;74905;44.124;18.116;2024-03-02T08:32:11;96635.09;;;16.31;44.52
84683;BME280;74905;44.124;18.116;2024-03-02T08:34:36;96628.81;;;16.35;44.69
84683;BME280;74905;44.124;18.116;2024-03-02T08:37:02;96633.00;;;16.74;41.56
84683;BME280;74905;44.124;18.116;2024-03-02T08:39:28;96625.34;;;16.36;42.64
84683;BME280;74905;44.124;18.116;2024-03-02T08:41:54;96618.59;;;16.96;41.93
84683;BME280;74905;44.124;18.116;2024-03-02T08:44:19;96615.53;;;16.78;42.40
84683;BME280;74905;44.124;18.116;2024-03-02T08:46:45;96619.81;;;16.83;42.51
84683;BME280;74905;44.124;18.116;2024-03-02T08:49:12;96621.56;;;17.06;41.83
84683;BME280;74905;44.124;18.116;2024-03-02T08:51:37;96613.53;;;16.44;43.03
84683;BME280;74905;44.124;18.116;2024-03-02T08:54:03;96615.44;;;16.73;42.78
84683;BME280;74905;44.124;18.116;2024-03-02T08:56:30;96621.16;;;17.26;42.05
84683;BME280;74905;44.124;18.116;2024-03-02T08:58:56;96618.97;;;18.37;39.25
84683;BME280;74905;44.124;18.116;2024-03-02T09:01:22;96618.81;;;19.01;38.78
84683;BME280;74905;44.124;18.116;2024-03-02T09:03:48;96618.63;;;18.75;39.02
84683;BME280;74905;44.124;18.116;2024-03-02T09:06:14;96617.66;;;18.50;38.98
84683;BME280;74905;44.124;18.116;2024-03-02T09:08:42;96613.84;;;18.98;38.02
84683;BME280;74905;44.124;18.116;2024-03-02T09:11:09;96612.47;;;19.01;37.40
84683;BME280;74905;44.124;18.116;2024-03-02T09:13:36;96616.97;;;19.44;36.96
84683;BME280;74905;44.124;18.116;2024-03-02T09:16:02;96617.97;;;20.10;35.40
84683;BME280;74905;44.124;18.116;2024-03-02T09:18:29;96610.22;;;20.22;35.66
84683;BME280;74905;44.124;18.116;2024-03-02T09:20:55;96608.19;;;20.47;34.51
84683;BME280;74905;44.124;18.116;2024-03-02T09:23:20;96612.34;;;20.22;34.62
84683;BME280;74905;44.124;18.116;2024-03-02T09:25:46;96606.00;;;20.19;34.90
84683;BME280;74905;44.124;18.116;2024-03-02T09:28:12;96613.72;;;20.00;34.96
84683;BME280;74905;44.124;18.116;2024-03-02T09:30:37;96606.56;;;19.77;34.62
84683;BME280;74905;44.124;18.116;2024-03-02T09:33:03;96602.28;;;19.62;35.31
84683;BME280;74905;44.124;18.116;2024-03-02T09:35:29;96614.34;;;19.85;34.31
84683;BME280;74905;44.124;18.116;2024-03-02T09:37:55;96603.09;;;19.91;34.64
84683;BME280;74905;44.124;18.116;2024-03-02T09:40:24;96608.91;;;20.56;33.75
84683;BME280;74905;44.124;18.116;2024-03-02T09:42:50;96604.66;;;20.77;33.56
84683;BME280;74905;44.124;18.116;2024-03-02T09:45:23;96611.66;;;20.25;33.28
84683;BME280;74905;44.124;18.116;2024-03-02T09:47:50;96598.28;;;21.07;32.24
84683;BME280;74905;44.124;18.116;2024-03-02T09:50:15;96599.59;;;21.57;31.90
84683;BME280;74905;44.124;18.116;2024-03-02T09:52:48;96592.56;;;21.43;31.65
84683;BME280;74905;44.124;18.116;2024-03-02T09:55:15;96591.78;;;21.61;31.66
84683;BME280;74905;44.124;18.116;2024-03-02T09:57:41;96593.72;;;22.13;30.58
84683;BME280;74905;44.124;18.116;2024-03-02T10:00:08;96593.09;;;21.90;30.70
84683;BME280;74905;44.124;18.116;2024-03-02T10:02:34;96581.41;;;22.53;29.47
84683;BME280;74905;44.124;18.116;2024-03-02T10:04:59;96579.31;;;22.48;30.09
84683;BME280;74905;44.124;18.116;2024-03-02T10:07:25;96583.69;;;22.33;30.74
84683;BME280;74905;44.124;18.116;2024-03-02T10:09:51;96576.53;;;22.40;30.37
84683;BME280;74905;44.124;18.116;2024-03-02T10:12:17;96583.72;;;23.18;29.59
84683;BME280;74905;44.124;18.116;2024-03-02T10:14:44;96576.63;;;23.19;28.15
84683;BME280;74905;44.124;18.116;2024-03-02T10:17:12;96580.72;;;23.32;29.09
84683;BME280;74905;44.124;18.116;2024-03-02T10:19:39;96573.97;;;22.99;28.78
84683;BME280;74905;44.124;18.116;2024-03-02T10:22:07;96575.91;;;23.17;28.39
84683;BME280;74905;44.124;18.116;2024-03-02T10:24:41;96577.78;;;23.43;27.63
84683;BME280;74905;44.124;18.116;2024-03-02T10:27:15;96571.75;;;23.75;28.37
84683;BME280;74905;44.124;18.116;2024-03-02T10:29:41;96562.34;;;24.40;26.95
84683;BME280;74905;44.124;18.116;2024-03-02T10:32:11;96569.88;;;24.60;26.35
84683;BME280;74905;44.124;18.116;2024-03-02T10:34:40;96559.94;;;24.59;27.19
84683;BME280;74905;44.124;18.116;2024-03-02T10:37:06;96565.03;;;24.95;25.78
84683;BME280;74905;44.124;18.116;2024-03-02T10:39:35;96552.72;;;25.83;24.51
84683;BME280;74905;44.124;18.116;2024-03-02T10:42:02;96540.78;;;26.69;23.71
84683;BME280;74905;44.124;18.116;2024-03-02T10:44:29;96541.28;;;26.78;22.95
84683;BME280;74905;44.124;18.116;2024-03-02T10:46:56;96546.47;;;25.37;24.79
84683;BME280;74905;44.124;18.116;2024-03-02T10:49:23;96553.56;;;23.52;27.21
84683;BME280;74905;44.124;18.116;2024-03-02T10:51:49;96551.44;;;22.79;28.36
84683;BME280;74905;44.124;18.116;2024-03-02T10:54:15;96547.66;;;23.70;26.93
84683;BME280;74905;44.124;18.116;2024-03-02T10:56:42;96554.91;;;23.59;26.44
84683;BME280;74905;44.124;18.116;2024-03-02T10:59:37;96539.91;;;22.99;26.98
84683;BME280;74905;44.124;18.116;2024-03-02T11:02:03;96541.22;;;24.72;25.87
84683;BME280;74905;44.124;18.116;2024-03-02T11:04:31;96540.16;;;25.33;24.94
84683;BME280;74905;44.124;18.116;2024-03-02T11:07:02;96528.66;;;26.40;23.59
84683;BME280;74905;44.124;18.116;2024-03-02T11:09:30;96517.06;;;26.48;23.25
84683;BME280;74905;44.124;18.116;2024-03-02T11:12:19;96516.44;;;26.12;23.23
84683;BME280;74905;44.124;18.116;2024-03-02T11:14:48;96514.09;;;25.55;23.48
84683;BME280;74905;44.124;18.116;2024-03-02T11:17:17;96512.69;;;25.17;24.11
84683;BME280;74905;44.124;18.116;2024-03-02T11:19:44;96512.84;;;26.14;23.20
84683;BME280;74905;44.124;18.116;2024-03-02T11:22:12;96513.94;;;25.96;23.13
84683;BME280;74905;44.124;18.116;2024-03-02T11:24:37;96507.97;;;26.08;22.98
84683;BME280;74905;44.124;18.116;2024-03-02T11:27:05;96500.97;;;25.70;23.15
84683;BME280;74905;44.124;18.116;2024-03-02T11:32:05;96509.50;;;23.55;25.43
84683;BME280;74905;44.124;18.116;2024-03-02T11:36:58;96511.25;;;21.32;28.92
84683;BME280;74905;44.124;18.116;2024-03-02T11:39:27;96507.13;;;20.76;29.94
84683;BME280;74905;44.124;18.116;2024-03-02T11:41:54;96500.78;;;20.75;30.96
84683;BME280;74905;44.124;18.116;2024-03-02T11:44:20;96509.97;;;20.39;30.67
84683;BME280;74905;44.124;18.116;2024-03-02T11:46:52;96508.50;;;19.88;31.91
84683;BME280;74905;44.124;18.116;2024-03-02T11:52:04;96496.91;;;19.07;33.01
84683;BME280;74905;44.124;18.116;2024-03-02T11:54:32;96504.22;;;18.43;33.95
84683;BME280;74905;44.124;18.116;2024-03-02T11:57:04;96509.72;;;18.25;34.67
84683;BME280;74905;44.124;18.116;2024-03-02T11:59:30;96493.44;;;18.15;34.54
84683;BME280;74905;44.124;18.116;2024-03-02T12:01:56;96488.34;;;17.96;34.92
84683;BME280;74905;44.124;18.116;2024-03-02T12:06:56;96491.59;;;18.50;35.48
84683;BME280;74905;44.124;18.116;2024-03-02T12:09:26;96491.13;;;18.82;33.70
84683;BME280;74905;44.124;18.116;2024-03-02T12:12:05;96486.28;;;18.95;34.94
84683;BME280;74905;44.124;18.116;2024-03-02T12:14:32;96494.00;;;18.92;34.12
84683;BME280;74905;44.124;18.116;2024-03-02T12:16:58;96485.50;;;18.82;34.44
84683;BME280;74905;44.124;18.116;2024-03-02T12:19:25;96484.16;;;18.93;33.73
84683;BME280;74905;44.124;18.116;2024-03-02T12:21:52;96491.16;;;18.88;33.18
84683;BME280;74905;44.124;18.116;2024-03-02T12:24:18;96489.63;;;18.69;33.04
84683;BME280;74905;44.124;18.116;2024-03-02T12:26:44;96493.66;;;18.44;33.37
84683;BME280;74905;44.124;18.116;2024-03-02T12:29:10;96499.97;;;18.36;34.01
84683;BME280;74905;44.124;18.116;2024-03-02T12:31:36;96489.41;;;18.41;33.50
84683;BME280;74905;44.124;18.116;2024-03-02T12:34:03;96483.34;;;17.88;34.51
84683;BME280;74905;44.124;18.116;2024-03-02T12:36:29;96484.56;;;18.49;34.67
84683;BME280;74905;44.124;18.116;2024-03-02T12:38:55;96492.91;;;19.60;31.61
84683;BME280;74905;44.124;18.116;2024-03-02T12:41:20;96483.59;;;19.25;34.41
84683;BME280;74905;44.124;18.116;2024-03-02T12:43:46;96496.53;;;18.52;33.89
84683;BME280;74905;44.124;18.116;2024-03-02T12:46:12;96497.78;;;17.58;35.57
84683;BME280;74905;44.124;18.116;2024-03-02T12:48:37;96499.66;;;17.37;35.61
84683;BME280;74905;44.124;18.116;2024-03-02T12:51:06;96509.66;;;16.92;37.29
84683;BME280;74905;44.124;18.116;2024-03-02T12:53:32;96506.81;;;17.44;35.98
84683;BME280;74905;44.124;18.116;2024-03-02T12:55:58;96503.31;;;17.48;35.46
84683;BME280;74905;44.124;18.116;2024-03-02T12:58:23;96514.25;;;17.80;35.71
84683;BME280;74905;44.124;18.116;2024-03-02T13:00:49;96511.38;;;17.76;35.23
84683;BME280;74905;44.124;18.116;2024-03-02T13:03:17;96513.22;;;17.53;35.76
84683;BME280;74905;44.124;18.116;2024-03-02T13:05:49;96509.63;;;17.46;35.45
84683;BME280;74905;44.124;18.116;2024-03-02T13:08:15;96516.19;;;17.65;35.86
84683;BME280;74905;44.124;18.116;2024-03-02T13:10:40;96517.00;;;17.74;35.77